Time;durP1;ratioP1;P1;durP2;ratioP2;P2;SDS_P1;SDS_P2;PMS_P1;PMS_P2;Temp;Humidity;BMP_temperature;BMP_pressure;BME280_temperature;BME280_humidity;BME280_pressure;Samples;Min_cycle;Max_cycle;Signal;HPM_P1;HPM_P2
2021/12/13 00:00:55;;;;;;;;;22.75;21.75;;;;;;;;5097828;27;45474;-85
2021/12/13 00:03:30;;;;;;;;;24.75;22.50;;;;;;;;5097500;27;45609;-84
2021/12/13 00:06:05;;;;;;;;;26.25;24.25;;;;;;;;5115942;27;46701;-84
2021/12/13 00:08:38;;;;;;;;;27.25;22.75;;;;;;;;5097044;27;45468;-85
2021/12/13 00:11:12;;;;;;;;;20.75;20.50;;;;;;;;5097559;27;45524;-85
2021/12/13 00:14:03;;;;;;;;;21.75;19.75;;;;;;;;5115787;27;45445;-85
2021/12/13 00:16:33;;;;;;;;;20.50;19.50;;;;;;;;5111145;27;45495;-84
2021/12/13 00:19:04;;;;;;;;;22.25;20.00;;;;;;;;5097229;27;45347;-84
2021/12/13 00:21:36;;;;;;;;;21.00;20.25;;;;;;;;5115559;27;45288;-85
2021/12/13 00:24:04;;;;;;;;;25.50;22.25;;;;;;;;5097203;27;45753;-82
2021/12/13 00:26:31;;;;;;;;;21.75;19.50;;;;;;;;5096707;27;48173;-85
2021/12/13 00:28:57;;;;;;;;;24.25;21.00;;;;;;;;5115637;27;45955;-85
2021/12/13 00:31:25;;;;;;;;;23.25;23.00;;;;;;;;5097326;27;45405;-84
2021/12/13 00:34:09;;;;;;;;;23.50;20.25;;;;;;;;5096980;27;45440;-84
2021/12/13 00:36:42;;;;;;;;;20.75;20.00;;;;;;;;5115178;27;45669;-83
2021/12/13 00:39:10;;;;;;;;;21.00;19.50;;;;;;;;5096614;27;46592;-83
2021/12/13 00:41:36;;;;;;;;;22.25;21.75;;;;;;;;5115647;27;45439;-84
2021/12/13 00:44:04;;;;;;;;;22.00;20.25;;;;;;;;5115275;27;45460;-83
2021/12/13 00:46:29;;;;;;;;;22.00;19.75;;;;;;;;5096455;27;48863;-83
2021/12/13 00:48:56;;;;;;;;;22.75;20.00;;;;;;;;5096669;27;45396;-84
2021/12/13 00:51:27;;;;;;;;;21.00;19.25;;;;;;;;5114750;27;45413;-85
2021/12/13 00:53:55;;;;;;;;;21.50;20.25;;;;;;;;5096782;27;45799;-82
2021/12/13 00:56:39;;;;;;;;;26.25;24.00;;;;;;;;5096345;27;48572;-84
2021/12/13 00:59:05;;;;;;;;;24.00;22.00;;;;;;;;5115063;27;45522;-81
2021/12/13 01:01:30;;;;;;;;;28.00;25.75;;;;;;;;5096421;27;45453;-82
2021/12/13 01:03:57;;;;;;;;;21.25;21.00;;;;;;;;5114989;27;45556;-82
2021/12/13 01:06:37;;;;;;;;;25.75;22.50;;;;;;;;5114815;27;46612;-82
2021/12/13 01:09:21;;;;;;;;;24.75;23.00;;;;;;;;5096298;27;46133;-82
2021/12/13 01:11:52;;;;;;;;;26.00;21.75;;;;;;;;5096410;27;45539;-82
2021/12/13 01:14:37;;;;;;;;;25.75;22.50;;;;;;;;5096668;27;46041;-83
2021/12/13 01:17:36;;;;;;;;;23.25;22.50;;;;;;;;5115011;27;46568;-84
2021/12/13 01:20:09;;;;;;;;;24.25;23.00;;;;;;;;5109279;27;45341;-82
2021/12/13 01:22:51;;;;;;;;;26.50;23.50;;;;;;;;5114747;27;45349;-81
2021/12/13 01:28:22;;;;;;;;;33.25;24.50;;;;;;;;5113947;27;45290;-82
2021/12/13 01:30:52;;;;;;;;;29.50;25.50;;;;;;;;5114633;27;45377;-82
2021/12/13 01:33:18;;;;;;;;;21.75;18.75;;;;;;;;5096048;27;45354;-82
2021/12/13 01:35:46;;;;;;;;;26.50;23.50;;;;;;;;5114880;27;45455;-81
2021/12/13 01:38:16;;;;;;;;;28.50;25.25;;;;;;;;5095839;27;46928;-85
2021/12/13 01:40:44;;;;;;;;;28.00;25.00;;;;;;;;5114769;27;45471;-84
2021/12/13 01:43:15;;;;;;;;;24.25;21.75;;;;;;;;5114526;27;45415;-86
2021/12/13 01:45:41;;;;;;;;;26.25;23.75;;;;;;;;5096201;27;45513;-85
2021/12/13 01:48:14;;;;;;;;;25.75;24.00;;;;;;;;5095683;27;46456;-86
2021/12/13 01:50:47;;;;;;;;;28.00;24.50;;;;;;;;5095691;27;46154;-86
2021/12/13 01:53:13;;;;;;;;;24.00;20.25;;;;;;;;5114323;27;45475;-85
2021/12/13 01:55:40;;;;;;;;;20.25;20.25;;;;;;;;5095801;27;45603;-86
2021/12/13 01:58:19;;;;;;;;;28.25;23.25;;;;;;;;5114373;27;45392;-84
2021/12/13 02:03:38;;;;;;;;;24.00;22.25;;;;;;;;5114540;27;45577;-86
2021/12/13 02:06:03;;;;;;;;;21.75;21.50;;;;;;;;5114459;27;45529;-85
2021/12/13 02:08:28;;;;;;;;;25.00;23.33;;;;;;;;5095528;27;48551;-85
2021/12/13 02:10:56;;;;;;;;;24.50;21.00;;;;;;;;5113777;27;45795;-84
2021/12/13 02:13:24;;;;;;;;;27.25;23.75;;;;;;;;5114468;27;45514;-85
2021/12/13 02:18:40;;;;;;;;;22.50;20.75;;;;;;;;5113978;27;45470;-85
2021/12/13 02:21:08;;;;;;;;;22.75;20.50;;;;;;;;5113127;27;45970;-84
2021/12/13 02:23:35;;;;;;;;;25.00;23.50;;;;;;;;5095761;27;45483;-84
2021/12/13 02:26:01;;;;;;;;;21.25;19.50;;;;;;;;5113957;27;45570;-84
2021/12/13 02:28:30;;;;;;;;;21.00;18.00;;;;;;;;5113908;27;45613;-84
2021/12/13 02:31:01;;;;;;;;;21.50;19.75;;;;;;;;5114138;27;45654;-85
2021/12/13 02:33:29;;;;;;;;;23.00;20.25;;;;;;;;5095568;27;45496;-82
2021/12/13 02:35:56;;;;;;;;;28.25;24.25;;;;;;;;5095167;27;45766;-85
2021/12/13 02:38:22;;;;;;;;;22.75;21.50;;;;;;;;5113853;27;45551;-84
2021/12/13 02:40:48;;;;;;;;;24.25;22.00;;;;;;;;5097257;27;45804;-82
2021/12/13 02:43:16;;;;;;;;;22.25;19.00;;;;;;;;5098954;27;45323;-86
2021/12/13 02:45:44;;;;;;;;;23.75;19.25;;;;;;;;5117138;27;45322;-85
2021/12/13 02:48:18;;;;;;;;;26.50;25.25;;;;;;;;5098530;27;47493;-84
2021/12/13 02:50:46;;;;;;;;;25.00;21.00;;;;;;;;5098523;27;45475;-84
2021/12/13 02:53:13;;;;;;;;;27.50;24.25;;;;;;;;5116886;27;45483;-82
2021/12/13 02:55:39;;;;;;;;;24.00;20.00;;;;;;;;5098361;27;45472;-83
2021/12/13 02:58:06;;;;;;;;;24.25;20.50;;;;;;;;5116881;27;46150;-82
2021/12/13 03:00:34;;;;;;;;;27.50;20.00;;;;;;;;5116901;27;45874;-83
2021/12/13 03:03:02;;;;;;;;;20.75;19.75;;;;;;;;5116961;27;45321;-83
2021/12/13 03:05:30;;;;;;;;;25.75;19.50;;;;;;;;5098336;27;45500;-82
2021/12/13 03:07:57;;;;;;;;;21.25;20.25;;;;;;;;5097722;27;46987;-82
2021/12/13 03:10:29;;;;;;;;;25.75;20.25;;;;;;;;5098304;27;45339;-82
2021/12/13 03:12:54;;;;;;;;;27.00;21.75;;;;;;;;5098197;27;45409;-82
2021/12/13 03:15:23;;;;;;;;;22.00;18.67;;;;;;;;5097994;27;45408;-82
2021/12/13 03:17:57;;;;;;;;;23.75;18.50;;;;;;;;5098060;27;46569;-84
2021/12/13 03:20:33;;;;;;;;;22.75;18.50;;;;;;;;5098008;27;45862;-82
2021/12/13 03:23:16;;;;;;;;;22.00;20.00;;;;;;;;5116454;27;45307;-83
2021/12/13 03:25:59;;;;;;;;;21.00;18.50;;;;;;;;5116657;27;45481;-82
2021/12/13 03:28:39;;;;;;;;;23.75;20.75;;;;;;;;5116419;27;46508;-82
2021/12/13 03:31:06;;;;;;;;;18.25;17.50;;;;;;;;5097785;27;46081;-84
2021/12/13 03:33:54;;;;;;;;;20.00;18.50;;;;;;;;5097976;27;45363;-82
2021/12/13 03:36:22;;;;;;;;;21.00;16.25;;;;;;;;5116120;27;45364;-81
2021/12/13 03:38:52;;;;;;;;;18.50;18.00;;;;;;;;5116112;27;48685;-82
2021/12/13 03:41:19;;;;;;;;;20.25;18.00;;;;;;;;5116439;27;45447;-81
2021/12/13 03:43:48;;;;;;;;;18.25;15.25;;;;;;;;5116315;27;45457;-82
2021/12/13 03:46:14;;;;;;;;;18.75;17.75;;;;;;;;5097633;27;45534;-82
2021/12/13 03:48:41;;;;;;;;;25.00;19.75;;;;;;;;5115891;27;46449;-81
2021/12/13 03:51:09;;;;;;;;;18.50;17.00;;;;;;;;5115796;27;45656;-84
2021/12/13 03:53:35;;;;;;;;;20.75;19.00;;;;;;;;5097524;27;45569;-82
2021/12/13 03:56:04;;;;;;;;;19.00;18.00;;;;;;;;5097634;27;45643;-85
2021/12/13 03:58:32;;;;;;;;;16.50;14.75;;;;;;;;5097795;27;48188;-85
2021/12/13 04:01:05;;;;;;;;;22.50;18.75;;;;;;;;5116044;27;45985;-85
2021/12/13 04:03:31;;;;;;;;;19.25;17.00;;;;;;;;5097825;27;45353;-86
2021/12/13 04:05:58;;;;;;;;;21.75;20.75;;;;;;;;5097375;27;45512;-85
2021/12/13 04:08:24;;;;;;;;;18.00;16.50;;;;;;;;5115513;27;47414;-85
2021/12/13 04:10:51;;;;;;;;;21.25;18.50;;;;;;;;5115647;27;45782;-85
2021/12/13 04:13:20;;;;;;;;;17.75;16.50;;;;;;;;5115799;27;45313;-84
2021/12/13 04:16:04;;;;;;;;;19.50;18.25;;;;;;;;5097194;27;45541;-86
2021/12/13 04:21:15;;;;;;;;;16.50;13.75;;;;;;;;5116035;27;45697;-82
2021/12/13 04:23:41;;;;;;;;;18.00;17.00;;;;;;;;5115740;27;45344;-85
2021/12/13 04:26:07;;;;;;;;;16.25;15.50;;;;;;;;5097297;27;45583;-85
2021/12/13 04:28:45;;;;;;;;;20.25;17.50;;;;;;;;5115505;27;46423;-85
2021/12/13 04:31:12;;;;;;;;;16.75;13.50;;;;;;;;5115935;27;45968;-86
2021/12/13 04:33:39;;;;;;;;;20.75;19.25;;;;;;;;5097080;27;45564;-85
2021/12/13 04:36:10;;;;;;;;;20.00;17.50;;;;;;;;5096636;27;45283;-85
2021/12/13 04:38:45;;;;;;;;;16.50;15.00;;;;;;;;5096773;27;47428;-83
2021/12/13 04:41:10;;;;;;;;;24.00;19.00;;;;;;;;5096831;27;45638;-85
2021/12/13 04:43:36;;;;;;;;;20.00;17.25;;;;;;;;5115880;27;45459;-85
2021/12/13 04:46:03;;;;;;;;;18.00;17.75;;;;;;;;5096821;27;45354;-85
2021/12/13 04:48:31;;;;;;;;;18.25;17.00;;;;;;;;5096764;27;47280;-83
2021/12/13 04:51:04;;;;;;;;;18.00;17.50;;;;;;;;5096100;27;45912;-85
2021/12/13 04:53:31;;;;;;;;;13.75;12.50;;;;;;;;5097099;27;45442;-86
2021/12/13 04:55:58;;;;;;;;;13.50;12.50;;;;;;;;5096838;27;45374;-84
2021/12/13 04:58:23;;;;;;;;;13.75;13.00;;;;;;;;5115042;27;48183;-85
2021/12/13 05:00:52;;;;;;;;;16.50;13.75;;;;;;;;5115098;27;45543;-86
2021/12/13 05:03:20;;;;;;;;;16.00;13.00;;;;;;;;5114013;27;45327;-85
2021/12/13 05:05:45;;;;;;;;;13.50;12.00;;;;;;;;5114806;27;45535;-84
2021/12/13 05:08:13;;;;;;;;;18.25;16.75;;;;;;;;5114909;27;45342;-83
2021/12/13 05:10:39;;;;;;;;;21.50;20.75;;;;;;;;5115412;27;45658;-85
2021/12/13 05:13:07;;;;;;;;;23.75;21.75;;;;;;;;5096631;27;45349;-84
2021/12/13 05:15:34;;;;;;;;;26.75;25.50;;;;;;;;5114981;27;45357;-83
2021/12/13 05:18:00;;;;;;;;;20.75;19.50;;;;;;;;5114601;27;46289;-82
2021/12/13 05:20:28;;;;;;;;;19.25;18.25;;;;;;;;5096097;27;45283;-82
2021/12/13 05:22:59;;;;;;;;;17.50;15.25;;;;;;;;5096392;27;45649;-82
2021/12/13 05:25:34;;;;;;;;;17.75;17.25;;;;;;;;5095996;27;45608;-82
2021/12/13 05:28:01;;;;;;;;;16.25;14.75;;;;;;;;5114657;27;45433;-81
2021/12/13 05:30:26;;;;;;;;;20.25;18.50;;;;;;;;5095852;27;45802;-82
2021/12/13 05:32:58;;;;;;;;;19.00;17.75;;;;;;;;5114967;27;45614;-82
2021/12/13 05:35:29;;;;;;;;;15.50;14.25;;;;;;;;5096101;27;45505;-82
2021/12/13 05:37:56;;;;;;;;;11.25;11.25;;;;;;;;5095571;27;47026;-82
2021/12/13 05:40:42;;;;;;;;;16.75;15.25;;;;;;;;5095962;27;45357;-82
2021/12/13 05:43:14;;;;;;;;;18.25;16.00;;;;;;;;5095589;27;45398;-82
2021/12/13 05:45:41;;;;;;;;;17.50;16.25;;;;;;;;5114193;27;45618;-82
2021/12/13 05:48:10;;;;;;;;;19.25;17.75;;;;;;;;5095228;27;47947;-82
2021/12/13 05:50:40;;;;;;;;;16.75;16.75;;;;;;;;5095863;27;45494;-83
2021/12/13 05:53:29;;;;;;;;;18.75;18.00;;;;;;;;5095597;27;45518;-82
2021/12/13 05:56:05;;;;;;;;;18.25;17.00;;;;;;;;5090002;27;45536;-84
2021/12/13 05:58:33;;;;;;;;;19.00;18.50;;;;;;;;5095567;27;47980;-83
2021/12/13 06:00:59;;;;;;;;;20.00;19.25;;;;;;;;5114122;27;45376;-83
2021/12/13 06:03:33;;;;;;;;;22.75;20.50;;;;;;;;5095674;27;45428;-81
2021/12/13 06:06:04;;;;;;;;;16.75;14.25;;;;;;;;5095200;27;45464;-82
2021/12/13 06:08:34;;;;;;;;;16.50;16.00;;;;;;;;5114205;27;45788;-81
2021/12/13 06:11:02;;;;;;;;;18.50;17.50;;;;;;;;5095511;27;45987;-81
2021/12/13 06:13:42;;;;;;;;;19.25;18.25;;;;;;;;5114381;27;45252;-83
2021/12/13 06:16:18;;;;;;;;;21.25;20.25;;;;;;;;5099073;27;45627;-84
2021/12/13 06:19:03;;;;;;;;;19.25;16.75;;;;;;;;5117755;27;45449;-85
2021/12/13 06:21:47;;;;;;;;;18.75;16.75;;;;;;;;5117092;27;45352;-85
2021/12/13 06:24:12;;;;;;;;;16.00;15.00;;;;;;;;5099582;27;45414;-84
2021/12/13 06:26:38;;;;;;;;;18.25;16.00;;;;;;;;5099290;27;45538;-84
2021/12/13 06:29:05;;;;;;;;;14.25;12.75;;;;;;;;5117570;27;45739;-83
2021/12/13 06:31:48;;;;;;;;;12.00;11.50;;;;;;;;5099246;27;45515;-86
2021/12/13 06:34:15;;;;;;;;;13.75;13.50;;;;;;;;5112436;27;45475;-82
2021/12/13 06:36:49;;;;;;;;;16.25;14.50;;;;;;;;5117566;27;45698;-85
2021/12/13 06:39:16;;;;;;;;;16.25;13.25;;;;;;;;5117019;27;47176;-84
2021/12/13 06:41:43;;;;;;;;;17.75;14.75;;;;;;;;5098749;27;46393;-85
2021/12/13 06:44:29;;;;;;;;;14.25;13.75;;;;;;;;5117486;27;45323;-84
2021/12/13 06:46:59;;;;;;;;;13.00;12.50;;;;;;;;5117046;27;45473;-85
2021/12/13 06:49:31;;;;;;;;;16.50;13.75;;;;;;;;5098646;27;47436;-83
2021/12/13 06:52:00;;;;;;;;;16.75;16.50;;;;;;;;5116862;27;45510;-85
2021/12/13 06:54:28;;;;;;;;;15.75;15.75;;;;;;;;5117463;27;45361;-85
2021/12/13 06:56:57;;;;;;;;;18.00;17.00;;;;;;;;5098817;27;45488;-85
2021/12/13 06:59:23;;;;;;;;;16.00;16.00;;;;;;;;5098598;27;47649;-85
2021/12/13 07:01:58;;;;;;;;;14.50;14.00;;;;;;;;5117082;27;45498;-85
2021/12/13 07:04:24;;;;;;;;;13.50;12.75;;;;;;;;5117107;27;45336;-84
2021/12/13 07:06:49;;;;;;;;;13.00;11.75;;;;;;;;5116773;27;45636;-81
2021/12/13 07:09:16;;;;;;;;;13.50;12.00;;;;;;;;5098124;27;48408;-82
2021/12/13 07:11:56;;;;;;;;;16.50;15.75;;;;;;;;5116700;27;45856;-85
2021/12/13 07:14:36;;;;;;;;;15.75;13.50;;;;;;;;5116884;27;45424;-83
2021/12/13 07:17:10;;;;;;;;;12.00;11.75;;;;;;;;5098468;27;45511;-85
2021/12/13 07:19:39;;;;;;;;;11.75;11.75;;;;;;;;5098016;27;48607;-85
2021/12/13 07:22:06;;;;;;;;;12.50;12.50;;;;;;;;5116531;27;45577;-84
2021/12/13 07:24:33;;;;;;;;;13.00;11.50;;;;;;;;5116736;27;45296;-82
2021/12/13 07:27:04;;;;;;;;;11.50;11.00;;;;;;;;5097288;27;45401;-81
2021/12/13 07:29:35;;;;;;;;;12.00;12.00;;;;;;;;5097862;27;47239;-82
2021/12/13 07:32:06;;;;;;;;;17.25;16.25;;;;;;;;5097666;27;45466;-83
2021/12/13 07:34:32;;;;;;;;;15.00;13.25;;;;;;;;5116276;27;45566;-82
2021/12/13 07:37:03;;;;;;;;;17.50;15.75;;;;;;;;5097389;27;45511;-82
2021/12/13 07:39:31;;;;;;;;;17.25;16.50;;;;;;;;5097679;27;47594;-82
2021/12/13 07:41:59;;;;;;;;;18.00;17.50;;;;;;;;5116280;27;45818;-82
2021/12/13 07:44:38;;;;;;;;;18.25;17.25;;;;;;;;5116416;27;45480;-82
2021/12/13 07:47:06;;;;;;;;;19.25;17.25;;;;;;;;5116473;27;45293;-82
2021/12/13 07:49:33;;;;;;;;;19.50;17.25;;;;;;;;5097532;27;46734;-82
2021/12/13 07:52:00;;;;;;;;;19.50;18.00;;;;;;;;5096911;27;45403;-82
2021/12/13 07:54:26;;;;;;;;;18.75;17.50;;;;;;;;5097641;27;45453;-82
2021/12/13 07:56:53;;;;;;;;;17.75;16.75;;;;;;;;5097464;27;45487;-82
2021/12/13 07:59:22;;;;;;;;;18.00;18.00;;;;;;;;5116072;27;45425;-82
2021/12/13 08:01:50;;;;;;;;;24.25;22.75;;;;;;;;5115964;27;45793;-82
2021/12/13 08:04:17;;;;;;;;;25.00;24.25;;;;;;;;5116291;27;45345;-82
2021/12/13 08:06:45;;;;;;;;;22.50;22.00;;;;;;;;5097140;27;45669;-82
2021/12/13 08:09:12;;;;;;;;;18.00;17.00;;;;;;;;5115886;27;45366;-82
2021/12/13 08:11:37;;;;;;;;;19.00;18.00;;;;;;;;5115713;27;45813;-81
2021/12/13 08:14:03;;;;;;;;;21.50;19.75;;;;;;;;5097212;27;45365;-81
2021/12/13 08:16:30;;;;;;;;;19.50;19.00;;;;;;;;5097144;27;45394;-83
2021/12/13 08:19:04;;;;;;;;;19.50;18.50;;;;;;;;5096937;27;48078;-82
2021/12/13 08:21:29;;;;;;;;;20.25;17.25;;;;;;;;5115504;27;45382;-83
2021/12/13 08:23:56;;;;;;;;;19.67;17.67;;;;;;;;5115514;27;45325;-82
2021/12/13 08:26:31;;;;;;;;;20.00;18.25;;;;;;;;5115869;27;45585;-83
2021/12/13 08:28:58;;;;;;;;;13.75;13.25;;;;;;;;5096838;27;47024;-81
2021/12/13 08:31:33;;;;;;;;;18.75;15.75;;;;;;;;5096626;27;45308;-83
2021/12/13 08:34:18;;;;;;;;;16.25;16.25;;;;;;;;5097147;27;45274;-83
2021/12/13 08:36:45;;;;;;;;;21.25;18.25;;;;;;;;5103143;27;45475;-82
2021/12/13 08:39:15;;;;;;;;;16.75;13.25;;;;;;;;5096299;27;47904;-85
2021/12/13 08:41:45;;;;;;;;;15.50;13.75;;;;;;;;5115556;27;45374;-85
2021/12/13 08:44:10;;;;;;;;;13.00;12.00;;;;;;;;5115372;27;45224;-86
2021/12/13 08:46:44;;;;;;;;;15.67;13.67;;;;;;;;5115613;27;45482;-82
2021/12/13 08:49:18;;;;;;;;;19.50;17.50;;;;;;;;5115072;27;46223;-84
2021/12/13 08:51:55;;;;;;;;;14.75;14.75;;;;;;;;5096135;27;45349;-85
2021/12/13 08:54:21;;;;;;;;;16.00;15.50;;;;;;;;5096777;27;45311;-85
2021/12/13 08:56:49;;;;;;;;;11.75;11.25;;;;;;;;5096703;27;45476;-85
2021/12/13 08:59:24;;;;;;;;;9.00;9.00;;;;;;;;5096562;27;48226;-85
2021/12/13 09:01:52;;;;;;;;;11.00;11.00;;;;;;;;5115205;27;45968;-85
2021/12/13 09:04:38;;;;;;;;;9.25;8.75;;;;;;;;5096692;27;45405;-85
2021/12/13 09:07:05;;;;;;;;;10.75;9.75;;;;;;;;5109980;27;45444;-84
2021/12/13 09:09:31;;;;;;;;;10.25;9.25;;;;;;;;5114960;27;46527;-85
2021/12/13 09:11:58;;;;;;;;;11.00;11.00;;;;;;;;5096466;27;45755;-86
2021/12/13 09:14:31;;;;;;;;;9.50;9.25;;;;;;;;5115172;27;45511;-86
2021/12/13 09:17:17;;;;;;;;;9.50;9.50;;;;;;;;5096677;27;45865;-84
2021/12/13 09:19:49;;;;;;;;;9.50;8.75;;;;;;;;5096458;27;48479;-84
2021/12/13 09:22:32;;;;;;;;;10.00;9.75;;;;;;;;5114491;27;46021;-85
2021/12/13 09:25:06;;;;;;;;;10.25;9.25;;;;;;;;5115366;27;45672;-85
2021/12/13 09:27:38;;;;;;;;;5.75;5.50;;;;;;;;5114909;27;45407;-84
2021/12/13 09:30:04;;;;;;;;;8.75;7.75;;;;;;;;5096110;27;47066;-85
2021/12/13 09:32:32;;;;;;;;;9.33;9.00;;;;;;;;5096481;27;45422;-86
2021/12/13 09:35:16;;;;;;;;;8.00;7.00;;;;;;;;5114726;27;45433;-85
2021/12/13 09:37:41;;;;;;;;;3.50;3.50;;;;;;;;5114521;27;45349;-82
2021/12/13 09:40:07;;;;;;;;;3.67;3.00;;;;;;;;5095941;27;46119;-84
2021/12/13 09:42:42;;;;;;;;;4.25;4.00;;;;;;;;5095915;27;45901;-84
2021/12/13 09:45:09;;;;;;;;;0.25;0.25;;;;;;;;5114698;27;45523;-84
2021/12/13 09:47:38;;;;;;;;;2.25;2.00;;;;;;;;5115002;27;45461;-84
2021/12/13 09:50:18;;;;;;;;;1.00;1.00;;;;;;;;5113724;27;46708;-83
2021/12/13 09:52:51;;;;;;;;;1.00;1.00;;;;;;;;5095327;27;45941;-83
2021/12/13 09:55:21;;;;;;;;;2.00;2.00;;;;;;;;5114270;27;45490;-82
2021/12/13 09:57:56;;;;;;;;;3.75;2.00;;;;;;;;5095803;27;45501;-82
2021/12/13 10:00:24;;;;;;;;;3.00;3.00;;;;;;;;5114349;27;45333;-84
2021/12/13 10:02:53;;;;;;;;;4.50;4.00;;;;;;;;5095593;27;45808;-82
2021/12/13 10:05:22;;;;;;;;;2.75;2.75;;;;;;;;5095782;27;45416;-81
2021/12/13 10:07:51;;;;;;;;;5.00;4.00;;;;;;;;5113999;27;45447;-83
2021/12/13 10:10:29;;;;;;;;;3.25;2.25;;;;;;;;5108960;27;45756;-81
2021/12/13 10:13:07;;;;;;;;;2.00;2.00;;;;;;;;5114166;27;45236;-82
2021/12/13 10:15:34;;;;;;;;;3.75;3.00;;;;;;;;5095605;27;45464;-82
2021/12/13 10:18:03;;;;;;;;;2.00;2.00;;;;;;;;5095687;27;45555;-85
2021/12/13 10:20:30;;;;;;;;;3.00;3.00;;;;;;;;5113466;27;46709;-82
2021/12/13 10:22:56;;;;;;;;;2.00;2.00;;;;;;;;5095553;27;45319;-83
2021/12/13 10:25:24;;;;;;;;;1.00;1.00;;;;;;;;5095464;27;45493;-82
2021/12/13 10:27:50;;;;;;;;;1.00;1.00;;;;;;;;5114044;27;45634;-82
2021/12/13 10:30:26;;;;;;;;;1.00;1.00;;;;;;;;5095164;27;47464;-82
2021/12/13 10:32:53;;;;;;;;;0.00;0.00;;;;;;;;5108918;27;45369;-83
2021/12/13 10:35:21;;;;;;;;;1.00;1.00;;;;;;;;5095328;27;45432;-82
2021/12/13 10:37:54;;;;;;;;;0.25;0.00;;;;;;;;5095509;27;45428;-82
2021/12/13 10:40:23;;;;;;;;;2.00;1.00;;;;;;;;5113725;27;45536;-85
2021/12/13 10:42:52;;;;;;;;;1.50;1.25;;;;;;;;5095264;27;45844;-81
2021/12/13 10:45:20;;;;;;;;;0.50;0.50;;;;;;;;5095646;27;45561;-82
2021/12/13 10:47:47;;;;;;;;;1.00;1.00;;;;;;;;5095092;27;45535;-85
2021/12/13 10:50:17;;;;;;;;;1.25;1.00;;;;;;;;5094741;27;48262;-82
2021/12/13 10:52:47;;;;;;;;;1.00;1.00;;;;;;;;5113055;27;45311;-82
2021/12/13 10:55:17;;;;;;;;;1.00;1.00;;;;;;;;5113636;27;45291;-84
2021/12/13 10:57:47;;;;;;;;;3.00;2.00;;;;;;;;5094792;27;45334;-82
2021/12/13 11:00:18;;;;;;;;;3.00;3.00;;;;;;;;5113823;27;45442;-85
2021/12/13 11:02:44;;;;;;;;;2.50;2.50;;;;;;;;5117256;27;45433;-85
2021/12/13 11:05:13;;;;;;;;;6.00;5.00;;;;;;;;5098878;27;45332;-85
2021/12/13 11:07:39;;;;;;;;;5.00;5.00;;;;;;;;5116535;27;45476;-85
2021/12/13 11:10:06;;;;;;;;;5.25;5.25;;;;;;;;5117498;27;45583;-86
2021/12/13 11:12:34;;;;;;;;;3.50;3.00;;;;;;;;5117168;27;45772;-85
2021/12/13 11:15:03;;;;;;;;;4.00;4.00;;;;;;;;5117033;27;45453;-84
2021/12/13 11:17:31;;;;;;;;;3.00;3.00;;;;;;;;5117424;27;45588;-85
2021/12/13 11:19:59;;;;;;;;;4.00;3.00;;;;;;;;5116908;27;45553;-85
2021/12/13 11:22:28;;;;;;;;;4.75;4.75;;;;;;;;5097828;27;45317;-84
2021/12/13 11:24:55;;;;;;;;;3.75;3.50;;;;;;;;5098425;27;45400;-84
2021/12/13 11:27:24;;;;;;;;;5.75;4.75;;;;;;;;5098336;27;45549;-85
2021/12/13 11:29:51;;;;;;;;;5.50;5.00;;;;;;;;5116917;27;46303;-83
2021/12/13 11:32:42;;;;;;;;;5.00;4.50;;;;;;;;5098236;27;46020;-82
2021/12/13 11:35:07;;;;;;;;;6.00;5.25;;;;;;;;5097834;27;45413;-83
2021/12/13 11:37:59;;;;;;;;;4.00;3.00;;;;;;;;5097715;27;45554;-85
2021/12/13 11:40:52;;;;;;;;;5.00;5.00;;;;;;;;5113243;27;45797;-85
2021/12/13 11:43:27;;;;;;;;;3.75;2.75;;;;;;;;5116480;27;45364;-86
2021/12/13 11:45:55;;;;;;;;;3.25;3.25;;;;;;;;5111758;27;45414;-84
2021/12/13 11:48:32;;;;;;;;;3.00;2.50;;;;;;;;5116497;27;45600;-84
2021/12/13 11:51:16;;;;;;;;;3.50;2.75;;;;;;;;5096862;27;47454;-84
2021/12/13 11:53:41;;;;;;;;;4.25;4.25;;;;;;;;5097689;27;45845;-81
2021/12/13 11:56:18;;;;;;;;;4.00;3.00;;;;;;;;5116311;27;45318;-83
2021/12/13 11:58:59;;;;;;;;;5.75;4.75;;;;;;;;5116360;27;45560;-83
2021/12/13 12:01:45;;;;;;;;;5.00;4.75;;;;;;;;5116251;27;45689;-83
2021/12/13 12:04:29;;;;;;;;;5.00;5.00;;;;;;;;5097393;27;46327;-84
2021/12/13 12:07:16;;;;;;;;;6.50;4.75;;;;;;;;5097296;27;45472;-84
2021/12/13 12:09:45;;;;;;;;;11.50;9.25;;;;;;;;5097494;27;45569;-82
2021/12/13 12:12:29;;;;;;;;;7.75;7.75;;;;;;;;5097006;27;46756;-83
2021/12/13 12:15:00;;;;;;;;;6.25;6.25;;;;;;;;5115764;27;46012;-81
2021/12/13 12:17:25;;;;;;;;;7.75;7.75;;;;;;;;5097402;27;45307;-83
2021/12/13 12:19:51;;;;;;;;;6.50;6.50;;;;;;;;5115536;27;45277;-82
2021/12/13 12:22:17;;;;;;;;;6.25;5.75;;;;;;;;5096948;27;47880;-81
2021/12/13 12:24:44;;;;;;;;;7.00;6.25;;;;;;;;5115592;27;46134;-82
2021/12/13 12:27:12;;;;;;;;;6.50;5.25;;;;;;;;5097282;27;45433;-82
2021/12/13 12:29:41;;;;;;;;;7.50;7.50;;;;;;;;5115829;27;45514;-82
2021/12/13 12:32:27;;;;;;;;;9.25;9.00;;;;;;;;5115692;27;45549;-82
2021/12/13 12:34:56;;;;;;;;;8.50;7.75;;;;;;;;5114904;27;45385;-82
2021/12/13 12:37:37;;;;;;;;;9.00;9.00;;;;;;;;5096846;27;45425;-82
2021/12/13 12:40:13;;;;;;;;;7.50;7.50;;;;;;;;5097080;27;45635;-83
2021/12/13 12:42:43;;;;;;;;;8.75;8.25;;;;;;;;5096965;27;47196;-85
2021/12/13 12:45:18;;;;;;;;;10.50;10.00;;;;;;;;5096972;27;45342;-82
2021/12/13 12:47:46;;;;;;;;;11.75;10.50;;;;;;;;5097014;27;45356;-85
2021/12/13 12:50:14;;;;;;;;;10.25;9.00;;;;;;;;5097267;27;45617;-82
2021/12/13 12:52:46;;;;;;;;;10.75;9.00;;;;;;;;5114960;27;45504;-82
2021/12/13 12:55:13;;;;;;;;;11.00;10.25;;;;;;;;5097091;27;45933;-84
2021/12/13 12:57:39;;;;;;;;;9.00;8.50;;;;;;;;5115792;27;45380;-85
2021/12/13 13:00:04;;;;;;;;;9.50;9.00;;;;;;;;5115434;27;45405;-82
2021/12/13 13:02:32;;;;;;;;;7.50;6.50;;;;;;;;5096548;27;46713;-82
2021/12/13 13:04:58;;;;;;;;;7.00;5.00;;;;;;;;5115063;27;45267;-82
2021/12/13 13:07:28;;;;;;;;;9.00;8.75;;;;;;;;5114660;27;45457;-82
2021/12/13 13:09:53;;;;;;;;;9.25;9.00;;;;;;;;5115141;27;45615;-82
2021/12/13 13:12:21;;;;;;;;;8.33;7.67;;;;;;;;5114874;27;45391;-82
2021/12/13 13:14:49;;;;;;;;;7.75;6.50;;;;;;;;5096264;27;46059;-83
2021/12/13 13:17:14;;;;;;;;;11.25;10.25;;;;;;;;5096247;27;45339;-81
2021/12/13 13:19:41;;;;;;;;;9.00;8.75;;;;;;;;5096503;27;45328;-81
2021/12/13 13:22:18;;;;;;;;;9.00;9.00;;;;;;;;5115052;27;45536;-82
2021/12/13 13:24:45;;;;;;;;;8.00;8.00;;;;;;;;5096152;27;45995;-86
2021/12/13 13:27:11;;;;;;;;;9.25;8.50;;;;;;;;5115429;27;45574;-86
2021/12/13 13:29:37;;;;;;;;;10.25;9.50;;;;;;;;5115407;27;45417;-85
2021/12/13 13:32:03;;;;;;;;;6.50;5.75;;;;;;;;5096389;27;48027;-85
2021/12/13 13:34:34;;;;;;;;;5.75;5.75;;;;;;;;5115085;27;45541;-85
2021/12/13 13:37:05;;;;;;;;;5.50;5.50;;;;;;;;5114569;27;45603;-83
2021/12/13 13:39:34;;;;;;;;;9.50;8.25;;;;;;;;5114956;27;45431;-85
2021/12/13 13:42:25;;;;;;;;;9.75;9.75;;;;;;;;5096088;27;48451;-82
2021/12/13 13:45:02;;;;;;;;;7.00;6.25;;;;;;;;5091929;27;45830;-84
2021/12/13 13:47:33;;;;;;;;;8.25;8.00;;;;;;;;5091380;27;45403;-85
2021/12/13 13:50:15;;;;;;;;;8.00;7.00;;;;;;;;5115221;27;45515;-85
2021/12/13 13:52:43;;;;;;;;;8.25;8.25;;;;;;;;5095628;27;48949;-85
2021/12/13 13:55:28;;;;;;;;;10.75;10.75;;;;;;;;5095751;27;45847;-83
2021/12/13 13:57:58;;;;;;;;;9.00;8.50;;;;;;;;5095846;27;45438;-83
2021/12/13 14:00:24;;;;;;;;;8.25;8.25;;;;;;;;5095938;27;45532;-83
2021/12/13 14:02:49;;;;;;;;;10.00;10.00;;;;;;;;5114216;27;46465;-83
2021/12/13 14:05:15;;;;;;;;;11.00;10.25;;;;;;;;5095469;27;45325;-82
2021/12/13 14:07:42;;;;;;;;;10.00;9.25;;;;;;;;5095747;27;45212;-83
2021/12/13 14:10:11;;;;;;;;;9.00;9.00;;;;;;;;5114502;27;45283;-82
2021/12/13 14:13:00;;;;;;;;;13.50;12.25;;;;;;;;5095542;27;48356;-83
2021/12/13 14:15:28;;;;;;;;;12.25;11.25;;;;;;;;5094792;27;46144;-82
2021/12/13 14:17:56;;;;;;;;;10.25;10.00;;;;;;;;5114020;27;45328;-82
2021/12/13 14:20:24;;;;;;;;;9.50;9.50;;;;;;;;5113688;27;45519;-81
2021/12/13 14:22:53;;;;;;;;;10.00;9.00;;;;;;;;5113991;27;46261;-82
2021/12/13 14:25:26;;;;;;;;;11.25;11.00;;;;;;;;5114077;27;45483;-82
2021/12/13 14:27:51;;;;;;;;;8.75;8.00;;;;;;;;5095541;27;45339;-82
2021/12/13 14:30:20;;;;;;;;;8.67;8.67;;;;;;;;5113745;27;45986;-81
2021/12/13 14:32:46;;;;;;;;;10.25;10.00;;;;;;;;5114070;27;45380;-81
2021/12/13 14:35:21;;;;;;;;;11.25;11.25;;;;;;;;5113319;27;45372;-81
2021/12/13 14:37:47;;;;;;;;;10.00;10.00;;;;;;;;5117590;27;45469;-81
2021/12/13 14:40:13;;;;;;;;;10.50;10.25;;;;;;;;5117465;27;45286;-81
2021/12/13 14:42:38;;;;;;;;;17.00;12.75;;;;;;;;5117860;27;46428;-83
2021/12/13 14:45:07;;;;;;;;;11.25;11.00;;;;;;;;5098928;27;45484;-81
2021/12/13 14:47:35;;;;;;;;;12.00;11.00;;;;;;;;5098335;27;45306;-81
2021/12/13 14:50:07;;;;;;;;;13.25;12.00;;;;;;;;5098659;27;45476;-82
2021/12/13 14:52:40;;;;;;;;;12.25;12.25;;;;;;;;5098249;27;47758;-84
2021/12/13 14:55:09;;;;;;;;;11.50;10.50;;;;;;;;5098763;27;45771;-81
2021/12/13 14:57:35;;;;;;;;;13.00;11.75;;;;;;;;5117204;27;45433;-84